Time;durP1;ratioP1;P1;durP2;ratioP2;P2;SDS_P1;SDS_P2;PMS_P1;PMS_P2;Temp;Humidity;BMP_temperature;BMP_pressure;BME280_temperature;BME280_humidity;BME280_pressure;Samples;Min_cycle;Max_cycle;Signal;HPM_P1;HPM_P2
2021/03/17 00:01:43;;;;;;;13.77;5.75;;;;;;;8.54;47.63;101603.41;5046243;27;96838;-88
2021/03/17 00:04:10;;;;;;;10.27;6.07;;;;;;;8.57;47.73;101608.66;5046292;28;96729;-88
2021/03/17 00:06:38;;;;;;;10.57;6.18;;;;;;;8.51;47.41;101600.84;5037431;28;100967;-87
2021/03/17 00:09:04;;;;;;;14.15;6.32;;;;;;;8.35;48.06;101595.75;5036341;28;98043;-88
2021/03/17 00:11:31;;;;;;;10.02;6.03;;;;;;;8.32;48.00;101595.81;5036788;28;97036;-88
2021/03/17 00:14:00;;;;;;;11.50;5.75;;;;;;;8.17;48.42;101603.84;5048952;28;96794;-87
2021/03/17 00:16:26;;;;;;;10.55;5.68;;;;;;;8.34;47.84;101601.03;5043568;28;99228;-88
2021/03/17 00:18:56;;;;;;;10.18;5.60;;;;;;;8.21;48.52;101594.16;5040871;28;99850;-88
2021/03/17 00:21:24;;;;;;;17.42;6.32;;;;;;;8.19;48.69;101607.34;5059506;27;96934;-87
2021/03/17 00:23:51;;;;;;;11.35;6.35;;;;;;;8.03;48.80;101597.88;5056686;27;96044;-86
2021/03/17 00:26:18;;;;;;;10.63;6.20;;;;;;;8.09;49.43;101600.44;5055410;27;99986;-88
2021/03/17 00:28:44;;;;;;;9.48;6.00;;;;;;;7.85;49.82;101596.34;5059032;27;98108;-87
2021/03/17 00:31:11;;;;;;;11.68;5.93;;;;;;;8.02;49.65;101604.03;5060951;27;96840;-89
2021/03/17 00:33:39;;;;;;;9.32;6.13;;;;;;;8.09;49.73;101608.34;5059938;27;96297;-88
2021/03/17 00:36:07;;;;;;;16.60;7.55;;;;;;;7.97;50.31;101606.72;5056462;27;97440;-88
2021/03/17 00:38:33;;;;;;;13.90;6.80;;;;;;;7.79;50.32;101600.78;5045701;28;97989;-88
2021/03/17 00:41:01;;;;;;;11.98;6.35;;;;;;;7.53;50.99;101608.94;5043673;28;96644;-87
2021/03/17 00:43:27;;;;;;;9.55;5.82;;;;;;;7.55;50.98;101608.03;5043323;28;96818;-88
2021/03/17 00:45:55;;;;;;;9.48;6.40;;;;;;;7.83;50.62;101599.84;5044665;28;99928;-88
2021/03/17 00:51:03;;;;;;;11.45;6.72;;;;;;;8.11;49.92;101597.78;5042837;28;96764;-88
2021/03/17 00:53:29;;;;;;;12.85;6.28;;;;;;;8.42;49.52;101599.19;5044436;28;96924;-88
2021/03/17 00:55:55;;;;;;;16.92;6.13;;;;;;;8.31;49.72;101601.97;5038168;28;96860;-87
2021/03/17 00:58:23;;;;;;;;;;;;;;;8.63;49.12;101605.94;5037170;28;100386;-88
2021/03/17 01:00:49;;;;;;;12.27;6.93;;;;;;;8.38;49.50;101603.63;5039436;28;97589;-88
2021/03/17 01:03:15;;;;;;;11.82;6.05;;;;;;;8.57;48.85;101592.84;5043233;28;96724;-88
2021/03/17 01:05:42;;;;;;;10.90;6.03;;;;;;;8.52;48.89;101589.41;5026411;28;101121;-88
2021/03/17 01:08:09;;;;;;;14.55;6.32;;;;;;;8.39;48.51;101597.47;5042239;28;100952;-88
2021/03/17 01:10:37;;;;;;;11.13;5.57;;;;;;;8.48;48.04;101587.69;5048010;28;96886;-87
2021/03/17 01:13:04;;;;;;;13.50;5.50;;;;;;;8.91;47.43;101594.09;5046369;27;96697;-86
2021/03/17 01:15:33;;;;;;;10.57;5.40;;;;;;;8.78;48.30;101598.69;5048645;27;99590;-87
2021/03/17 01:18:00;;;;;;;10.05;5.25;;;;;;;8.55;48.48;101586.72;5051350;27;96902;-87
2021/03/17 01:20:29;;;;;;;9.15;5.35;;;;;;;8.70;47.91;101591.78;5040417;28;96769;-87
2021/03/17 01:22:57;;;;;;;10.45;5.60;;;;;;;8.96;47.18;101596.66;5047835;28;96855;-87
2021/03/17 01:25:28;;;;;;;12.88;5.40;;;;;;;8.74;47.60;101594.34;5058373;28;96805;-87
2021/03/17 01:27:55;;;;;;;14.32;5.50;;;;;;;8.58;48.23;101594.59;5056425;27;100817;-86
2021/03/17 01:30:26;;;;;;;12.80;6.05;;;;;;;8.11;49.15;101593.41;5053716;28;96809;-87
2021/03/17 01:32:54;;;;;;;11.80;5.63;;;;;;;8.50;48.20;101593.81;5052774;28;97124;-86
2021/03/17 01:35:21;;;;;;;10.77;6.18;;;;;;;8.14;49.09;101598.63;5055212;28;100323;-87
2021/03/17 01:37:49;;;;;;;11.73;6.03;;;;;;;8.14;49.27;101598.63;5055749;27;98951;-88
2021/03/17 01:40:16;;;;;;;11.90;6.40;;;;;;;7.88;50.04;101598.03;5048686;28;96848;-87
2021/03/17 01:42:43;;;;;;;10.23;5.93;;;;;;;7.52;51.14;101596.69;5052642;27;96581;-87
2021/03/17 01:45:13;;;;;;;14.18;6.68;;;;;;;7.31;51.88;101597.72;5035535;27;98812;-87
2021/03/17 01:47:46;;;;;;;12.10;6.22;;;;;;;7.57;51.23;101594.88;5045019;28;98095;-87
2021/03/17 01:50:20;;;;;;;11.15;6.22;;;;;;;7.97;50.42;101590.06;5038871;28;96620;-88
2021/03/17 01:52:48;;;;;;;11.18;6.20;;;;;;;8.27;49.30;101594.94;5032100;28;96765;-88
2021/03/17 01:55:18;;;;;;;15.32;6.47;;;;;;;8.13;49.44;101598.66;5027006;28;99936;-88
2021/03/17 01:57:45;;;;;;;12.05;6.75;;;;;;;7.54;51.10;101600.16;5036607;27;98923;-88
2021/03/17 02:00:14;;;;;;;19.73;6.80;;;;;;;6.87;52.79;101599.84;5034104;28;97034;-87
2021/03/17 02:02:43;;;;;;;12.20;6.30;;;;;;;7.21;52.41;101596.09;5041670;28;97272;-88
2021/03/17 02:05:12;;;;;;;15.18;7.10;;;;;;;7.74;50.99;101598.22;5034423;27;99318;-88
2021/03/17 02:07:40;;;;;;;15.82;7.60;;;;;;;7.88;50.45;101598.03;5031481;28;100183;-88
2021/03/17 02:10:09;;;;;;;10.80;6.18;;;;;;;8.17;49.72;101603.84;5033016;28;96849;-88
2021/03/17 02:12:46;;;;;;;14.05;6.55;;;;;;;8.44;48.95;101593.91;5037417;28;96907;-88
2021/03/17 02:15:28;;;;;;;14.18;6.38;;;;;;;8.02;49.64;101596.13;5035830;28;97913;-88
2021/03/17 02:17:59;;;;;;;12.23;6.47;;;;;;;7.86;49.61;101592.81;5025125;28;96802;-88
2021/03/17 02:20:59;;;;;;;14.90;6.82;;;;;;;8.13;49.33;101591.63;5037730;28;96897;-88
2021/03/17 02:23:31;;;;;;;13.70;7.15;;;;;;;8.31;49.01;101590.56;5035361;28;96742;-88
2021/03/17 02:26:36;;;;;;;14.93;7.57;;;;;;;7.64;50.70;101607.06;5044126;28;98259;-88
2021/03/17 02:29:45;;;;;;;14.85;7.40;;;;;;;7.24;51.78;101609.19;5041671;28;99519;-88
2021/03/17 02:32:17;;;;;;;15.27;7.22;;;;;;;7.82;50.63;101601.63;5033836;28;96542;-88
2021/03/17 02:34:48;;;;;;;17.48;8.07;;;;;;;7.69;51.09;101602.63;5053368;27;95865;-87
2021/03/17 02:37:17;;;;;;;16.33;7.68;;;;;;;7.75;50.74;101604.31;5059079;27;96641;-87
2021/03/17 02:39:50;;;;;;;15.30;8.00;;;;;;;7.78;50.26;101604.31;5057707;27;98041;-87
2021/03/17 02:42:22;;;;;;;19.20;7.32;;;;;;;7.98;50.15;101607.59;5042854;27;95962;-88
2021/03/17 02:44:52;;;;;;;17.48;7.20;;;;;;;8.17;49.21;101616.16;5055538;27;97442;-89
2021/03/17 02:47:20;;;;;;;19.48;7.38;;;;;;;7.92;49.82;101612.94;5049039;27;96344;-89
2021/03/17 02:49:50;;;;;;;19.33;8.45;;;;;;;8.14;49.74;101609.16;5058205;27;99553;-88
2021/03/17 02:52:17;;;;;;;14.95;7.78;;;;;;;8.21;49.35;101612.56;5055660;27;96440;-87
2021/03/17 02:54:46;;;;;;;18.25;8.23;;;;;;;8.22;49.22;101614.31;5054173;28;96095;-86
2021/03/17 02:57:17;;;;;;;18.52;7.90;;;;;;;8.02;49.37;101607.53;5056596;27;98156;-87
2021/03/17 02:59:44;;;;;;;19.77;9.05;;;;;;;8.13;49.34;101607.44;5049100;27;99117;-87
2021/03/17 03:02:11;;;;;;;13.85;7.57;;;;;;;8.07;49.55;101604.88;5051268;27;97861;-87
2021/03/17 03:04:41;;;;;;;15.88;8.15;;;;;;;8.14;49.51;101603.88;5054151;27;96381;-89
2021/03/17 03:07:08;;;;;;;17.85;8.20;;;;;;;7.92;49.89;101613.81;5057135;27;99469;-88
2021/03/17 03:09:35;;;;;;;18.65;8.10;;;;;;;8.13;49.61;101607.44;5051663;27;100133;-88
2021/03/17 03:12:01;;;;;;;18.85;7.65;;;;;;;8.00;49.77;101608.47;5052247;27;96685;-88
2021/03/17 03:14:30;;;;;;;14.07;7.30;;;;;;;7.72;50.49;101617.53;5040256;28;96932;-88
2021/03/17 03:16:59;;;;;;;15.00;8.10;;;;;;;7.43;51.87;101618.66;5042890;28;99421;-87
2021/03/17 03:36:17;;;;;;;15.73;8.07;;;;;;;6.63;54.17;101632.41;5025861;28;96874;-88
2021/03/17 03:38:43;;;;;;;16.55;8.20;;;;;;;7.00;53.09;101619.88;5035287;28;96646;-87
2021/03/17 03:41:13;;;;;;;16.90;8.35;;;;;;;6.32;54.65;101629.00;5039489;28;99061;-88
2021/03/17 03:43:39;;;;;;;16.88;8.07;;;;;;;6.44;54.65;101625.44;5047075;27;99544;-88
2021/03/17 03:46:08;;;;;;;17.38;7.75;;;;;;;6.37;55.19;101627.25;5042191;27;96419;-88
2021/03/17 03:48:36;;;;;;;17.75;7.80;;;;;;;6.62;54.59;101625.38;5057109;28;95988;-88
2021/03/17 03:51:05;;;;;;;19.70;8.35;;;;;;;7.01;52.97;101629.53;5046898;28;98169;-88
2021/03/17 03:53:46;;;;;;;14.80;7.93;;;;;;;7.33;52.10;101619.63;5052587;27;98047;-89
2021/03/17 03:56:18;;;;;;;14.82;7.70;;;;;;;7.38;52.00;101620.47;5058444;28;96431;-88
2021/03/17 03:58:52;;;;;;;17.67;8.40;;;;;;;7.70;51.09;101624.56;5046155;28;96598;-87
2021/03/17 04:01:24;;;;;;;17.38;8.60;;;;;;;7.53;51.41;101628.22;5047652;28;97927;-88
2021/03/17 04:03:54;;;;;;;17.30;8.02;;;;;;;7.44;51.33;101630.06;5045179;28;98235;-88
2021/03/17 04:06:25;;;;;;;16.85;7.82;;;;;;;7.82;50.93;101627.06;5057535;27;96407;-89
2021/03/17 04:08:59;;;;;;;17.23;7.63;;;;;;;8.00;50.25;101619.88;5043826;28;96753;-88
2021/03/17 04:14:09;;;;;;;18.95;8.38;;;;;;;7.54;51.03;101626.47;5055492;28;98341;-88
2021/03/17 04:16:38;;;;;;;18.75;7.78;;;;;;;7.55;51.62;101634.31;5048008;27;97590;-87
2021/03/17 04:19:10;;;;;;;13.55;7.57;;;;;;;7.72;51.04;101630.69;5047144;28;96119;-88
2021/03/17 04:21:42;;;;;;;12.68;7.00;;;;;;;7.41;52.05;101635.34;5042796;27;99368;-88
2021/03/17 04:24:11;;;;;;;18.08;7.72;;;;;;;7.39;52.32;101630.09;5041452;28;99314;-88
2021/03/17 04:26:42;;;;;;;14.30;7.10;;;;;;;7.34;52.56;101633.66;5045997;27;96597;-89
2021/03/17 04:29:08;;;;;;;13.32;6.82;;;;;;;7.15;53.38;101630.31;5043290;28;96525;-88
2021/03/17 04:31:37;;;;;;;12.82;5.75;;;;;;;7.08;53.39;101644.38;5040164;28;100250;-87
2021/03/17 04:34:06;;;;;;;15.60;7.13;;;;;;;6.89;54.70;101637.50;5059911;28;99834;-88
2021/03/17 04:36:36;;;;;;;15.52;6.38;;;;;;;6.94;53.92;101646.22;5052554;28;96477;-88
2021/03/17 04:39:04;;;;;;;22.77;7.60;;;;;;;6.76;54.82;101647.19;5051589;27;96050;-88
2021/03/17 04:41:34;;;;;;;15.25;6.72;;;;;;;6.41;55.64;101652.63;5058111;27;97230;-87
2021/03/17 04:44:05;;;;;;;13.90;6.70;;;;;;;7.03;54.06;101657.53;5049767;27;96895;-87
2021/03/17 04:46:33;;;;;;;13.77;6.60;;;;;;;6.19;56.18;101651.81;5057185;27;97514;-84
2021/03/17 04:49:00;;;;;;;15.10;6.57;;;;;;;6.80;55.04;101651.53;5058070;27;97423;-87
2021/03/17 04:51:26;;;;;;;16.05;7.30;;;;;;;6.24;56.42;101654.41;5047792;27;99562;-88
2021/03/17 04:53:54;;;;;;;12.60;6.93;;;;;;;5.48;58.84;101659.78;5047911;28;96566;-87
2021/03/17 04:56:23;;;;;;;12.85;6.32;;;;;;;6.09;56.87;101659.72;5049554;28;96440;-88
2021/03/17 04:58:52;;;;;;;15.63;6.68;;;;;;;6.44;55.95;101662.22;5043980;27;96745;-88
2021/03/17 05:04:02;;;;;;;20.27;9.73;;;;;;;6.89;54.49;101663.75;5048518;27;99558;-88
2021/03/17 05:06:31;;;;;;;15.52;8.25;;;;;;;6.70;55.11;101665.59;5051315;28;96542;-88
2021/03/17 05:08:59;;;;;;;19.13;7.88;;;;;;;5.89;56.34;101679.00;5056486;28;95989;-87
2021/03/17 05:11:26;;;;;;;21.75;7.50;;;;;;;6.42;55.88;101680.63;5050386;28;100027;-88
2021/03/17 05:13:56;;;;;;;21.17;7.35;;;;;;;6.08;56.40;101681.59;5057141;28;100635;-89
2021/03/17 05:16:26;;;;;;;19.65;7.30;;;;;;;6.50;55.17;101676.19;5055383;28;97010;-89
2021/03/17 05:18:53;;;;;;;20.10;7.82;;;;;;;6.87;54.06;101683.91;5055837;27;96308;-90
2021/03/17 05:21:20;;;;;;;14.18;6.72;;;;;;;7.04;53.65;101695.19;5047179;27;100473;-88
2021/03/17 05:23:47;;;;;;;15.48;7.75;;;;;;;7.05;53.49;101689.06;5054535;28;99883;-88
2021/03/17 05:26:14;;;;;;;17.67;6.97;;;;;;;7.38;52.62;101691.47;5039910;27;96564;-87
2021/03/17 05:28:41;;;;;;;17.20;6.80;;;;;;;7.37;52.42;101686.19;5039459;28;97313;-88
2021/03/17 05:31:10;;;;;;;13.40;6.53;;;;;;;7.33;52.77;101695.88;5032700;28;96935;-88
2021/03/17 05:33:38;;;;;;;22.27;7.22;;;;;;;7.38;52.30;101686.19;5034593;28;99951;-88
2021/03/17 05:36:06;;;;;;;15.63;8.10;;;;;;;7.18;52.99;101685.47;5022961;28;96629;-87
2021/03/17 05:38:33;;;;;;;17.08;7.68;;;;;;;7.30;52.72;101690.63;5033613;28;97131;-87
2021/03/17 05:41:00;;;;;;;21.85;9.15;;;;;;;7.14;53.30;101704.78;5042168;28;100322;-87
2021/03/17 05:43:28;;;;;;;23.90;9.48;;;;;;;7.48;52.45;101701.00;5039361;28;97031;-87
2021/03/17 05:45:56;;;;;;;17.42;7.95;;;;;;;7.48;51.72;101703.63;5036583;28;96904;-87
2021/03/17 05:48:34;;;;;;;28.60;10.02;;;;;;;7.69;51.94;101697.34;5043179;27;96875;-88
2021/03/17 05:51:00;;;;;;;33.88;9.88;;;;;;;7.03;53.29;101703.94;5056388;27;99869;-88
2021/03/17 05:53:31;;;;;;;28.95;10.25;;;;;;;7.52;52.23;101702.75;5038757;28;98097;-88
2021/03/17 05:56:01;;;;;;;19.40;9.75;;;;;;;7.47;52.10;101701.91;5042676;27;95936;-89
2021/03/17 05:58:32;;;;;;;32.03;10.95;;;;;;;6.60;55.04;101706.81;5059181;27;98038;-85
2021/03/17 06:01:04;;;;;;;22.88;9.57;;;;;;;7.09;53.93;101717.06;5059795;27;100492;-85
2021/03/17 06:03:35;;;;;;;27.55;13.15;;;;;;;7.08;53.76;101716.22;5049887;27;98061;-83
2021/03/17 06:06:05;;;;;;;25.23;10.57;;;;;;;6.58;55.42;101724.31;5052008;27;96221;-86
2021/03/17 06:08:48;;;;;;;29.15;9.82;;;;;;;6.93;54.57;101725.91;5046223;27;96825;-83
2021/03/17 06:11:20;;;;;;;26.30;9.98;;;;;;;6.58;55.91;101718.19;5044698;27;98866;-86
2021/03/17 06:13:49;;;;;;;21.33;9.90;;;;;;;7.19;53.97;101716.13;5050303;28;97883;-87
2021/03/17 06:16:19;;;;;;;22.15;9.15;;;;;;;7.40;53.59;101723.88;5050477;28;96785;-86
2021/03/17 06:18:53;;;;;;;25.02;9.77;;;;;;;6.95;54.49;101724.16;5038973;27;96945;-86
2021/03/17 06:21:20;;;;;;;20.70;9.32;;;;;;;7.57;52.79;101729.88;5031254;28;99517;-86
2021/03/17 06:23:47;;;;;;;23.60;9.68;;;;;;;7.52;53.01;101733.44;5032584;28;100543;-89
2021/03/17 06:28:56;;;;;;;20.60;10.32;;;;;;;6.88;54.66;101727.69;5039683;28;96959;-89
2021/03/17 06:31:36;;;;;;;33.25;11.88;;;;;;;6.46;55.77;101739.22;5041296;28;100450;-86
2021/03/17 06:34:05;;;;;;;28.42;10.40;;;;;;;7.13;54.71;101737.19;5039736;28;99477;-87
2021/03/17 06:36:32;;;;;;;32.15;10.02;;;;;;;6.71;55.06;101730.38;5045577;27;96437;-89
2021/03/17 06:39:10;;;;;;;25.90;10.00;;;;;;;6.76;55.19;101745.25;5032965;28;96805;-90
2021/03/17 06:41:58;;;;;;;35.97;10.82;;;;;;;6.74;55.61;101739.16;5041117;28;98122;-88
2021/03/17 06:47:21;;;;;;;32.70;10.32;;;;;;;6.75;55.90;101738.28;5030095;28;97314;-90
2021/03/17 06:52:45;;;;;;;;;;;;;;;7.59;53.01;101741.28;5050120;28;98824;-88
2021/03/17 06:55:24;;;;;;;24.00;9.90;;;;;;;7.07;54.54;101750.38;5047922;28;97454;-88
2021/03/17 06:58:05;;;;;;;23.80;10.73;;;;;;;7.20;54.76;101746.78;5044283;28;96613;-89
2021/03/17 07:00:34;;;;;;;22.42;8.93;;;;;;;7.25;54.12;101746.75;5041452;27;96639;-88
2021/03/17 07:03:09;;;;;;;27.52;10.77;;;;;;;7.40;53.68;101750.19;5036283;28;99329;-89
2021/03/17 07:05:39;;;;;;;26.20;10.23;;;;;;;7.58;53.56;101743.91;5031836;28;100073;-88
2021/03/17 07:08:08;;;;;;;27.85;11.00;;;;;;;7.41;53.58;101757.19;5041318;27;96669;-89
2021/03/17 07:10:38;;;;;;;29.83;10.98;;;;;;;7.56;53.37;101754.44;5037997;27;96785;-87
2021/03/17 07:13:07;;;;;;;22.23;9.95;;;;;;;7.64;52.99;101758.78;5047519;28;97045;-90
2021/03/17 07:15:35;;;;;;;25.30;10.80;;;;;;;7.55;53.71;101747.41;5047406;28;99467;-87
2021/03/17 07:18:30;;;;;;;23.77;10.30;;;;;;;7.69;53.28;101752.56;5043155;28;97005;-88
2021/03/17 07:21:03;;;;;;;26.40;8.77;;;;;;;7.54;53.26;101747.47;5002181;28;98829;-88
2021/03/17 07:23:36;;;;;;;25.17;9.32;;;;;;;7.70;52.72;101753.47;5038098;28;98885;-87
2021/03/17 07:26:18;;;;;;;22.58;9.63;;;;;;;7.93;52.11;101757.66;5032546;28;97484;-87
2021/03/17 07:28:56;;;;;;;25.83;9.57;;;;;;;7.95;51.86;101760.25;5032672;28;96913;-86
2021/03/17 07:31:25;;;;;;;28.23;10.13;;;;;;;8.33;51.47;101759.97;5038026;28;97045;-86
2021/03/17 07:33:52;;;;;;;20.17;9.52;;;;;;;8.13;52.08;101764.50;5036028;27;99070;-87
2021/03/17 07:36:36;;;;;;;21.33;10.10;;;;;;;6.48;56.49;101771.63;5045964;28;99267;-83
2021/03/17 07:39:11;;;;;;;27.20;10.00;;;;;;;7.25;55.81;101779.19;5037499;28;96752;-87
2021/03/17 07:41:41;;;;;;;30.20;10.63;;;;;;;7.16;55.46;101772.22;5040266;28;97738;-86
2021/03/17 07:44:11;;;;;;;31.60;13.45;;;;;;;6.84;55.61;101773.25;5036353;27;99388;-86
2021/03/17 07:46:40;;;;;;;43.40;14.05;;;;;;;6.67;56.93;101776.81;5046697;28;101233;-87
2021/03/17 07:49:08;;;;;;;30.33;11.63;;;;;;;7.36;55.18;101771.22;5044419;27;97028;-86
2021/03/17 07:51:42;;;;;;;24.10;11.30;;;;;;;7.47;55.13;101775.56;5032009;28;98032;-86
2021/03/17 07:56:57;;;;;;;32.10;12.30;;;;;;;7.91;53.02;101771.72;5035929;28;99834;-86
2021/03/17 07:59:23;;;;;;;33.92;12.80;;;;;;;8.15;52.34;101774.13;5055026;27;96657;-87
2021/03/17 08:01:51;;;;;;;33.78;12.93;;;;;;;8.67;51.04;101781.50;5056834;27;96419;-87
2021/03/17 08:04:18;;;;;;;31.23;12.50;;;;;;;8.34;51.82;101788.88;5057870;27;97895;-87
2021/03/17 08:06:46;;;;;;;27.05;12.13;;;;;;;8.66;51.70;101782.44;5055946;27;99431;-87
2021/03/17 08:12:00;;;;;;;30.85;14.77;;;;;;;8.55;51.47;101784.28;5037571;28;96713;-87
2021/03/17 08:14:28;;;;;;;36.00;14.65;;;;;;;8.69;51.12;101782.38;5040256;28;98120;-88
2021/03/17 08:16:54;;;;;;;31.60;15.18;;;;;;;8.90;50.79;101784.78;5035180;27;98737;-87
2021/03/17 08:19:22;;;;;;;29.00;13.68;;;;;;;8.45;51.55;101795.81;5035060;28;97543;-88
2021/03/17 08:21:56;;;;;;;29.35;14.25;;;;;;;8.62;51.60;101793.88;5032710;28;96830;-87
2021/03/17 08:24:44;;;;;;;28.92;13.68;;;;;;;8.70;51.48;101797.31;5032198;28;99359;-86
2021/03/17 08:27:34;;;;;;;36.00;14.10;;;;;;;8.74;51.56;101799.00;5029307;28;100440;-88
2021/03/17 08:30:07;;;;;;;28.90;13.15;;;;;;;8.83;51.13;101798.91;5030616;28;96660;-87
2021/03/17 08:33:09;;;;;;;33.60;14.15;;;;;;;8.97;50.53;101788.22;5037553;27;96821;-88
2021/03/17 08:38:53;;;;;;;27.77;13.60;;;;;;;8.80;51.36;101802.44;5037701;28;99919;-88
2021/03/17 08:41:53;;;;;;;31.00;14.73;;;;;;;8.83;51.05;101806.81;5038656;28;96886;-88
2021/03/17 08:44:44;;;;;;;34.15;14.55;;;;;;;9.17;50.43;101796.75;5036263;28;97704;-88
2021/03/17 08:47:17;;;;;;;30.27;13.77;;;;;;;9.68;48.95;101804.81;5024567;28;97690;-86
2021/03/17 08:49:45;;;;;;;28.02;13.55;;;;;;;9.54;49.19;101810.28;5030195;28;100326;-86
2021/03/17 08:52:14;;;;;;;36.50;14.82;;;;;;;8.77;51.47;101806.88;5035386;28;98534;-89
2021/03/17 08:55:04;;;;;;;28.17;13.82;;;;;;;8.94;51.16;101819.88;5035871;28;97300;-88
2021/03/17 08:57:59;;;;;;;24.98;14.40;;;;;;;8.28;52.98;101822.28;5037720;28;98389;-87
2021/03/17 09:00:59;;;;;;;31.98;14.82;;;;;;;8.63;52.60;101817.56;5033134;28;99730;-88
2021/03/17 09:03:50;;;;;;;28.80;13.65;;;;;;;8.76;51.67;101826.22;5040956;27;98223;-86
2021/03/17 09:06:27;;;;;;;26.52;12.77;;;;;;;8.77;51.86;101830.59;5046658;28;96989;-87
2021/03/17 09:09:08;;;;;;;25.42;12.77;;;;;;;9.43;50.13;101817.50;5034821;28;101380;-88
2021/03/17 09:12:00;;;;;;;26.17;13.25;;;;;;;9.51;49.68;101829.69;5026221;28;97745;-88
2021/03/17 09:20:31;;;;;;;31.25;13.48;;;;;;;9.29;49.77;101827.34;5025008;28;98683;-88
2021/03/17 09:26:00;;;;;;;27.92;13.93;;;;;;;8.95;51.23;101833.03;5027991;28;97350;-88
2021/03/17 09:28:34;;;;;;;27.40;13.35;;;;;;;8.99;51.51;101834.72;5035149;28;96690;-87
2021/03/17 09:31:03;;;;;;;26.58;14.10;;;;;;;9.16;50.68;101838.06;5040155;28;99281;-88
2021/03/17 09:33:34;;;;;;;26.42;13.85;;;;;;;8.86;51.46;101842.81;5025722;28;101250;-89
2021/03/17 09:36:05;;;;;;;27.77;14.18;;;;;;;9.46;49.97;101842.03;5033689;28;97030;-88
2021/03/17 09:38:39;;;;;;;24.00;12.65;;;;;;;9.23;50.42;101837.97;5034286;28;97397;-88
2021/03/17 09:41:10;;;;;;;22.70;12.75;;;;;;;9.66;49.63;101833.84;5044336;28;100052;-88
2021/03/17 09:43:43;;;;;;;21.92;12.82;;;;;;;10.59;47.24;101837.66;5031794;28;99120;-87
2021/03/17 09:46:33;;;;;;;26.33;13.07;;;;;;;10.70;46.41;101841.81;5037577;28;97212;-88
2021/03/17 09:49:04;;;;;;;23.58;13.05;;;;;;;9.84;49.08;101835.38;5037310;28;97239;-88
2021/03/17 09:51:34;;;;;;;25.77;12.13;;;;;;;10.21;48.79;101840.97;5035236;28;100043;-87
2021/03/17 09:54:07;;;;;;;22.13;12.52;;;;;;;10.80;47.15;101847.81;5045956;28;96941;-88
2021/03/17 09:56:44;;;;;;;23.58;12.75;;;;;;;10.08;48.71;101842.03;5047279;27;96414;-87
2021/03/17 09:59:23;;;;;;;20.17;11.70;;;;;;;10.24;48.33;101847.06;5046854;27;97079;-88
2021/03/17 10:01:53;;;;;;;22.73;12.32;;;;;;;10.42;47.90;101845.88;5042918;28;97067;-88
2021/03/17 10:04:21;;;;;;;26.20;12.27;;;;;;;10.78;47.04;101847.84;5031240;28;97933;-88
2021/03/17 10:06:50;;;;;;;21.08;12.32;;;;;;;11.09;46.44;101847.28;5040670;28;97210;-88
2021/03/17 10:09:18;;;;;;;20.13;11.50;;;;;;;11.09;45.79;101840.19;5038493;28;97631;-87
2021/03/17 10:12:00;;;;;;;24.63;11.60;;;;;;;11.54;45.25;101840.13;5042614;28;99082;-88
2021/03/17 10:14:30;;;;;;;21.73;11.98;;;;;;;12.01;45.00;101847.03;5032396;28;100466;-87
2021/03/17 10:17:00;;;;;;;17.48;10.82;;;;;;;12.11;44.32;101847.66;5026783;28;99336;-86
2021/03/17 10:19:35;;;;;;;19.67;11.48;;;;;;;10.29;47.46;101854.91;5042316;28;97448;-88
2021/03/17 10:22:02;;;;;;;17.38;10.13;;;;;;;10.76;48.01;101848.78;5048315;28;100831;-87
2021/03/17 10:24:36;;;;;;;17.15;10.32;;;;;;;9.96;48.97;101853.66;5047799;27;99514;-88
2021/03/17 10:27:04;;;;;;;16.75;10.10;;;;;;;8.68;52.99;101854.41;5041365;27;96573;-88
2021/03/17 10:29:32;;;;;;;18.25;10.00;;;;;;;9.65;50.08;101852.38;5048288;28;96739;-87
2021/03/17 10:31:59;;;;;;;25.20;10.35;;;;;;;9.39;51.27;101856.22;5040410;28;97659;-87
2021/03/17 10:37:11;;;;;;;17.25;10.23;;;;;;;9.75;50.17;101848.69;5036800;28;96556;-85
2021/03/17 10:39:38;;;;;;;17.52;9.45;;;;;;;9.71;50.13;101852.28;5035883;28;96668;-85
2021/03/17 10:42:18;;;;;;;17.13;10.23;;;;;;;10.01;50.19;101846.53;5035704;28;98299;-84
2021/03/17 10:45:00;;;;;;;18.67;9.95;;;;;;;10.98;47.15;101855.41;5036232;28;100171;-87
2021/03/17 10:47:30;;;;;;;19.65;10.88;;;;;;;11.06;46.22;101855.25;5047476;28;96710;-86
2021/03/17 10:49:57;;;;;;;19.58;10.52;;;;;;;11.76;45.67;101849.34;5043724;28;96670;-87
2021/03/17 10:52:33;;;;;;;16.88;9.77;;;;;;;10.19;48.24;101855.94;5045281;28;99386;-84
2021/03/17 10:55:37;;;;;;;13.48;9.27;;;;;;;11.12;46.59;101845.41;5041873;28;99887;-86
2021/03/17 11:01:25;;;;;;;15.60;9.68;;;;;;;9.17;50.83;101842.44;5037020;27;96751;-87
2021/03/17 11:04:06;;;;;;;24.60;13.32;;;;;;;9.19;51.66;101845.03;5033384;28;99990;-88
2021/03/17 11:06:34;;;;;;;13.15;8.65;;;;;;;9.33;51.02;101845.75;5038042;28;100005;-87
2021/03/17 11:09:11;;;;;;;13.63;8.45;;;;;;;9.32;50.86;101854.53;5034052;27;96807;-86
2021/03/17 11:11:56;;;;;;;11.38;7.82;;;;;;;8.94;52.27;101854.13;5038306;28;96829;-85
2021/03/17 11:14:31;;;;;;;13.00;7.45;;;;;;;9.48;50.94;101844.66;5035693;28;97861;-86
2021/03/17 11:19:44;;;;;;;;;;;;;;;9.94;49.46;101858.09;5039455;28;96885;-86
2021/03/17 11:22:12;;;;;;;14.70;8.27;;;;;;;10.58;48.01;101847.34;5036531;28;96925;-87
2021/03/17 11:24:41;;;;;;;16.02;8.88;;;;;;;9.06;51.66;101852.22;5031537;28;99514;-86
2021/03/17 11:27:25;;;;;;;12.07;7.15;;;;;;;9.50;50.84;101856.97;5042108;28;99401;-86
2021/03/17 11:29:52;;;;;;;14.63;8.15;;;;;;;9.54;51.54;101855.13;5033150;28;96896;-86
2021/03/17 11:32:29;;;;;;;13.52;7.00;;;;;;;9.66;50.93;101856.72;5035514;28;96865;-85
2021/03/17 11:34:55;;;;;;;;;;;;;;;9.19;51.91;101861.72;5038953;28;99488;-85
2021/03/17 11:37:25;;;;;;;12.35;6.20;;;;;;;8.71;53.43;101844.72;5047300;27;100649;-84
2021/03/17 11:39:52;;;;;;;9.88;5.95;;;;;;;9.90;50.33;101846.72;5050991;27;96048;-84
2021/03/17 11:42:18;;;;;;;11.60;6.90;;;;;;;10.12;49.81;101851.63;5042381;27;96657;-85
2021/03/17 11:44:45;;;;;;;13.35;6.95;;;;;;;10.87;47.81;101856.50;5045267;28;98080;-86
2021/03/17 11:47:13;;;;;;;12.80;6.70;;;;;;;11.32;46.75;101850.31;5039004;28;99720;-86
2021/03/17 11:49:41;;;;;;;9.85;5.47;;;;;;;11.01;46.59;101859.78;5041338;28;96756;-87
2021/03/17 11:52:09;;;;;;;8.57;5.60;;;;;;;10.83;46.89;101846.91;5041005;28;97202;-86
2021/03/17 11:54:36;;;;;;;7.97;5.63;;;;;;;9.85;50.14;101856.44;5051295;27;97933;-86
2021/03/17 11:57:04;;;;;;;8.82;5.70;;;;;;;10.32;49.47;101852.22;5047425;27;99416;-87
2021/03/17 11:59:31;;;;;;;36.28;14.00;;;;;;;10.45;48.76;101858.16;5048797;27;96670;-87
2021/03/17 12:01:59;;;;;;;10.60;5.45;;;;;;;10.97;47.58;101852.78;5034511;28;96687;-86
2021/03/17 12:04:28;;;;;;;9.40;5.38;;;;;;;11.38;46.58;101852.81;5033819;28;101618;-88
2021/03/17 12:06:58;;;;;;;8.45;4.65;;;;;;;10.61;47.70;101847.31;5035562;28;99163;-87
2021/03/17 12:09:27;;;;;;;9.25;4.93;;;;;;;11.24;46.59;101844.28;5038516;28;96832;-89
2021/03/17 12:11:55;;;;;;;8.73;4.65;;;;;;;11.50;45.83;101852.53;5034564;27;96812;-87
2021/03/17 12:17:06;;;;;;;7.80;5.07;;;;;;;10.65;48.12;101851.63;5045106;27;97445;-89
2021/03/17 12:19:33;;;;;;;8.20;4.68;;;;;;;9.61;50.04;101862.09;5044574;28;96718;-88
2021/03/17 12:22:01;;;;;;;8.55;4.72;;;;;;;10.60;48.10;101857.88;5044778;28;96768;-89
2021/03/17 12:24:27;;;;;;;10.15;4.93;;;;;;;9.99;48.95;101851.81;5036973;28;98144;-88
2021/03/17 12:26:53;;;;;;;7.97;4.72;;;;;;;9.86;49.39;101847.63;5033629;28;97698;-89
2021/03/17 12:29:19;;;;;;;;;;;;;;;10.71;47.20;101851.50;5045262;28;96847;-89
2021/03/17 12:31:46;;;;;;;8.70;4.45;;;;;;;11.14;46.38;101848.03;5031790;28;96938;-88
2021/03/17 12:34:12;;;;;;;8.20;5.20;;;;;;;11.03;46.41;101856.16;5047898;28;99651;-86
2021/03/17 12:36:38;;;;;;;8.95;5.68;;;;;;;11.67;45.12;101838.06;5037814;28;97183;-87
2021/03/17 12:39:05;;;;;;;;;;;;;;;11.77;45.20;101847.56;5043119;27;96756;-87
2021/03/17 12:41:32;;;;;;;9.70;5.32;;;;;;;11.79;44.69;101849.28;5048550;28;97925;-86
2021/03/17 12:43:59;;;;;;;7.03;4.63;;;;;;;11.83;44.88;101839.47;5042034;28;96976;-88